sensor_id;sensor_type;location;lat;lon;timestamp;P1;durP1;ratioP1;P2;durP2;ratioP2
2838;SDS011;1427;48.510;9.060;2024-02-15T00:00:31;48.70;;;2.70;;
2838;SDS011;1427;48.510;9.060;2024-02-15T00:03:00;47.77;;;2.17;;
2838;SDS011;1427;48.510;9.060;2024-02-15T00:05:41;46.67;;;2.70;;
2838;SDS011;1427;48.510;9.060;2024-02-15T00:08:12;49.17;;;2.40;;
2838;SDS011;1427;48.510;9.060;2024-02-15T00:10:43;45.70;;;2.33;;
2838;SDS011;1427;48.510;9.060;2024-02-15T00:13:12;48.93;;;2.70;;
2838;SDS011;1427;48.510;9.060;2024-02-15T00:15:41;45.93;;;2.40;;
2838;SDS011;1427;48.510;9.060;2024-02-15T00:18:09;48.50;;;2.53;;
2838;SDS011;1427;48.510;9.060;2024-02-15T00:20:38;47.57;;;2.87;;
2838;SDS011;1427;48.510;9.060;2024-02-15T00:23:06;46.67;;;2.73;;
2838;SDS011;1427;48.510;9.060;2024-02-15T00:25:34;48.40;;;3.60;;
2838;SDS011;1427;48.510;9.060;2024-02-15T00:28:04;50.40;;;2.63;;
2838;SDS011;1427;48.510;9.060;2024-02-15T00:30:33;47.23;;;2.87;;
2838;SDS011;1427;48.510;9.060;2024-02-15T00:33:02;48.17;;;3.17;;
2838;SDS011;1427;48.510;9.060;2024-02-15T00:35:32;47.37;;;2.50;;
2838;SDS011;1427;48.510;9.060;2024-02-15T00:38:01;47.13;;;3.03;;
2838;SDS011;1427;48.510;9.060;2024-02-15T00:40:30;46.67;;;2.67;;
2838;SDS011;1427;48.510;9.060;2024-02-15T00:42:58;46.50;;;2.53;;
2838;SDS011;1427;48.510;9.060;2024-02-15T00:45:27;47.40;;;2.90;;
2838;SDS011;1427;48.510;9.060;2024-02-15T00:47:56;47.97;;;3.37;;
2838;SDS011;1427;48.510;9.060;2024-02-15T00:50:24;48.70;;;2.90;;
2838;SDS011;1427;48.510;9.060;2024-02-15T00:52:53;47.30;;;2.20;;
2838;SDS011;1427;48.510;9.060;2024-02-15T00:55:21;45.90;;;2.20;;
2838;SDS011;1427;48.510;9.060;2024-02-15T00:57:49;49.93;;;3.40;;
2838;SDS011;1427;48.510;9.060;2024-02-15T01:00:17;46.97;;;2.50;;
2838;SDS011;1427;48.510;9.060;2024-02-15T01:02:48;46.13;;;2.23;;
2838;SDS011;1427;48.510;9.060;2024-02-15T01:05:17;51.40;;;3.10;;
2838;SDS011;1427;48.510;9.060;2024-02-15T01:07:45;47.23;;;2.13;;
2838;SDS011;1427;48.510;9.060;2024-02-15T01:10:15;47.13;;;2.40;;
2838;SDS011;1427;48.510;9.060;2024-02-15T01:12:43;46.40;;;2.53;;
2838;SDS011;1427;48.510;9.060;2024-02-15T01:15:11;48.57;;;2.97;;
2838;SDS011;1427;48.510;9.060;2024-02-15T01:17:39;46.80;;;2.70;;
2838;SDS011;1427;48.510;9.060;2024-02-15T01:20:10;47.57;;;2.80;;
2838;SDS011;1427;48.510;9.060;2024-02-15T01:22:38;46.17;;;2.80;;
2838;SDS011;1427;48.510;9.060;2024-02-15T01:25:07;46.90;;;2.30;;
2838;SDS011;1427;48.510;9.060;2024-02-15T01:27:36;47.70;;;2.50;;
2838;SDS011;1427;48.510;9.060;2024-02-15T01:30:06;54.40;;;3.87;;
2838;SDS011;1427;48.510;9.060;2024-02-15T01:32:37;48.27;;;2.80;;
2838;SDS011;1427;48.510;9.060;2024-02-15T01:35:10;46.73;;;2.00;;
2838;SDS011;1427;48.510;9.060;2024-02-15T01:37:38;49.20;;;3.13;;
2838;SDS011;1427;48.510;9.060;2024-02-15T01:40:07;46.93;;;2.57;;
2838;SDS011;1427;48.510;9.060;2024-02-15T01:42:39;47.77;;;2.27;;
2838;SDS011;1427;48.510;9.060;2024-02-15T01:45:07;49.70;;;3.10;;
2838;SDS011;1427;48.510;9.060;2024-02-15T01:47:38;48.10;;;2.87;;
2838;SDS011;1427;48.510;9.060;2024-02-15T01:50:08;46.40;;;2.47;;
2838;SDS011;1427;48.510;9.060;2024-02-15T01:52:38;47.87;;;2.60;;
2838;SDS011;1427;48.510;9.060;2024-02-15T01:55:08;46.07;;;1.83;;
2838;SDS011;1427;48.510;9.060;2024-02-15T01:57:37;47.40;;;2.43;;
2838;SDS011;1427;48.510;9.060;2024-02-15T02:00:06;46.10;;;2.27;;
2838;SDS011;1427;48.510;9.060;2024-02-15T02:02:35;46.80;;;2.87;;
2838;SDS011;1427;48.510;9.060;2024-02-15T02:05:05;47.60;;;2.53;;
2838;SDS011;1427;48.510;9.060;2024-02-15T02:07:34;47.53;;;2.73;;
2838;SDS011;1427;48.510;9.060;2024-02-15T02:10:05;45.50;;;1.97;;
2838;SDS011;1427;48.510;9.060;2024-02-15T02:12:35;45.90;;;2.27;;
2838;SDS011;1427;48.510;9.060;2024-02-15T02:15:04;45.67;;;2.07;;
2838;SDS011;1427;48.510;9.060;2024-02-15T02:17:33;46.60;;;2.77;;
2838;SDS011;1427;48.510;9.060;2024-02-15T02:20:02;46.00;;;2.37;;
2838;SDS011;1427;48.510;9.060;2024-02-15T02:22:35;46.00;;;2.33;;
2838;SDS011;1427;48.510;9.060;2024-02-15T02:25:05;46.20;;;2.33;;
2838;SDS011;1427;48.510;9.060;2024-02-15T02:27:35;47.27;;;2.73;;
2838;SDS011;1427;48.510;9.060;2024-02-15T02:30:04;45.77;;;1.73;;
2838;SDS011;1427;48.510;9.060;2024-02-15T02:32:35;49.47;;;2.83;;
2838;SDS011;1427;48.510;9.060;2024-02-15T02:35:05;47.23;;;2.80;;
2838;SDS011;1427;48.510;9.060;2024-02-15T02:37:33;46.33;;;2.63;;
2838;SDS011;1427;48.510;9.060;2024-02-15T02:40:05;47.10;;;3.23;;
2838;SDS011;1427;48.510;9.060;2024-02-15T02:42:36;47.50;;;2.87;;
2838;SDS011;1427;48.510;9.060;2024-02-15T02:45:13;45.40;;;1.90;;
2838;SDS011;1427;48.510;9.060;2024-02-15T02:47:41;48.40;;;2.53;;
2838;SDS011;1427;48.510;9.060;2024-02-15T02:50:10;45.87;;;2.23;;
2838;SDS011;1427;48.510;9.060;2024-02-15T02:52:38;47.33;;;2.50;;
2838;SDS011;1427;48.510;9.060;2024-02-15T02:55:08;48.37;;;2.70;;
2838;SDS011;1427;48.510;9.060;2024-02-15T02:57:37;49.77;;;2.47;;
2838;SDS011;1427;48.510;9.060;2024-02-15T03:00:06;47.53;;;2.67;;
2838;SDS011;1427;48.510;9.060;2024-02-15T03:02:39;45.90;;;1.90;;
2838;SDS011;1427;48.510;9.060;2024-02-15T03:05:08;47.13;;;2.03;;
2838;SDS011;1427;48.510;9.060;2024-02-15T03:07:38;45.57;;;1.70;;
2838;SDS011;1427;48.510;9.060;2024-02-15T03:10:09;45.47;;;1.90;;
2838;SDS011;1427;48.510;9.060;2024-02-15T03:12:41;45.57;;;2.20;;
2838;SDS011;1427;48.510;9.060;2024-02-15T03:15:14;45.17;;;1.93;;
2838;SDS011;1427;48.510;9.060;2024-02-15T03:17:46;47.17;;;2.60;;
2838;SDS011;1427;48.510;9.060;2024-02-15T03:20:15;45.30;;;1.97;;
2838;SDS011;1427;48.510;9.060;2024-02-15T03:22:52;47.07;;;2.10;;
2838;SDS011;1427;48.510;9.060;2024-02-15T03:25:23;54.90;;;3.20;;
2838;SDS011;1427;48.510;9.060;2024-02-15T03:27:51;46.60;;;2.77;;
2838;SDS011;1427;48.510;9.060;2024-02-15T03:30:21;45.20;;;2.27;;
2838;SDS011;1427;48.510;9.060;2024-02-15T03:32:50;44.90;;;1.50;;
2838;SDS011;1427;48.510;9.060;2024-02-15T03:35:19;45.10;;;1.63;;
2838;SDS011;1427;48.510;9.060;2024-02-15T03:37:49;46.40;;;2.27;;
2838;SDS011;1427;48.510;9.060;2024-02-15T03:40:18;45.20;;;1.70;;
2838;SDS011;1427;48.510;9.060;2024-02-15T03:42:48;46.00;;;2.30;;
2838;SDS011;1427;48.510;9.060;2024-02-15T03:45:17;44.97;;;1.90;;
2838;SDS011;1427;48.510;9.060;2024-02-15T03:47:45;45.87;;;2.00;;
2838;SDS011;1427;48.510;9.060;2024-02-15T03:50:16;45.20;;;2.00;;
2838;SDS011;1427;48.510;9.060;2024-02-15T03:52:45;45.57;;;2.10;;
2838;SDS011;1427;48.510;9.060;2024-02-15T03:55:14;45.90;;;2.13;;
2838;SDS011;1427;48.510;9.060;2024-02-15T03:57:42;58.70;;;2.90;;
2838;SDS011;1427;48.510;9.060;2024-02-15T04:00:14;45.10;;;2.03;;
2838;SDS011;1427;48.510;9.060;2024-02-15T04:02:48;46.17;;;2.47;;
2838;SDS011;1427;48.510;9.060;2024-02-15T04:05:17;44.87;;;1.70;;
2838;SDS011;1427;48.510;9.060;2024-02-15T04:07:48;45.67;;;1.77;;
2838;SDS011;1427;48.510;9.060;2024-02-15T04:10:17;44.43;;;1.40;;
2838;SDS011;1427;48.510;9.060;2024-02-15T04:12:45;45.47;;;2.10;;
2838;SDS011;1427;48.510;9.060;2024-02-15T04:15:14;45.10;;;1.57;;
2838;SDS011;1427;48.510;9.060;2024-02-15T04:17:44;44.70;;;1.70;;
2838;SDS011;1427;48.510;9.060;2024-02-15T04:20:13;54.40;;;2.30;;
2838;SDS011;1427;48.510;9.060;2024-02-15T04:22:44;46.50;;;2.30;;
2838;SDS011;1427;48.510;9.060;2024-02-15T04:25:14;45.47;;;1.90;;
2838;SDS011;1427;48.510;9.060;2024-02-15T04:27:49;45.13;;;1.70;;
2838;SDS011;1427;48.510;9.060;2024-02-15T04:30:19;45.10;;;1.60;;
2838;SDS011;1427;48.510;9.060;2024-02-15T04:32:50;45.87;;;2.17;;
2838;SDS011;1427;48.510;9.060;2024-02-15T04:35:19;46.77;;;2.40;;
2838;SDS011;1427;48.510;9.060;2024-02-15T04:37:48;47.60;;;2.30;;
2838;SDS011;1427;48.510;9.060;2024-02-15T04:40:19;46.93;;;2.67;;
2838;SDS011;1427;48.510;9.060;2024-02-15T04:42:47;45.37;;;1.93;;
2838;SDS011;1427;48.510;9.060;2024-02-15T04:45:15;46.20;;;2.23;;
2838;SDS011;1427;48.510;9.060;2024-02-15T04:47:46;44.87;;;1.80;;
2838;SDS011;1427;48.510;9.060;2024-02-15T04:50:17;44.80;;;1.57;;
2838;SDS011;1427;48.510;9.060;2024-02-15T04:52:47;45.47;;;1.53;;
2838;SDS011;1427;48.510;9.060;2024-02-15T04:55:16;50.73;;;2.83;;
2838;SDS011;1427;48.510;9.060;2024-02-15T04:57:45;45.70;;;1.87;;
2838;SDS011;1427;48.510;9.060;2024-02-15T05:00:15;46.17;;;2.23;;
2838;SDS011;1427;48.510;9.060;2024-02-15T05:02:49;44.87;;;1.60;;
2838;SDS011;1427;48.510;9.060;2024-02-15T05:05:17;45.30;;;2.00;;
2838;SDS011;1427;48.510;9.060;2024-02-15T05:07:45;52.53;;;2.37;;
2838;SDS011;1427;48.510;9.060;2024-02-15T05:10:15;45.97;;;2.07;;
2838;SDS011;1427;48.510;9.060;2024-02-15T05:12:44;53.13;;;3.07;;
2838;SDS011;1427;48.510;9.060;2024-02-15T05:15:15;48.00;;;4.03;;
2838;SDS011;1427;48.510;9.060;2024-02-15T05:17:45;45.50;;;2.47;;
2838;SDS011;1427;48.510;9.060;2024-02-15T05:20:16;44.90;;;1.77;;
2838;SDS011;1427;48.510;9.060;2024-02-15T05:22:46;45.50;;;1.83;;
2838;SDS011;1427;48.510;9.060;2024-02-15T05:25:16;45.60;;;2.40;;
2838;SDS011;1427;48.510;9.060;2024-02-15T05:27:51;47.13;;;2.73;;
2838;SDS011;1427;48.510;9.060;2024-02-15T05:30:20;45.70;;;3.03;;
2838;SDS011;1427;48.510;9.060;2024-02-15T05:32:49;45.70;;;2.13;;
2838;SDS011;1427;48.510;9.060;2024-02-15T05:35:21;44.80;;;1.80;;
2838;SDS011;1427;48.510;9.060;2024-02-15T05:37:51;46.23;;;3.43;;
2838;SDS011;1427;48.510;9.060;2024-02-15T05:40:20;45.70;;;2.37;;
2838;SDS011;1427;48.510;9.060;2024-02-15T05:42:48;46.57;;;2.60;;
2838;SDS011;1427;48.510;9.060;2024-02-15T05:45:29;45.70;;;2.43;;
2838;SDS011;1427;48.510;9.060;2024-02-15T05:48:00;45.07;;;2.10;;
2838;SDS011;1427;48.510;9.060;2024-02-15T05:50:34;45.07;;;1.83;;
2838;SDS011;1427;48.510;9.060;2024-02-15T05:53:02;44.93;;;1.80;;
2838;SDS011;1427;48.510;9.060;2024-02-15T05:55:31;47.43;;;2.97;;
2838;SDS011;1427;48.510;9.060;2024-02-15T05:58:02;45.77;;;2.37;;
2838;SDS011;1427;48.510;9.060;2024-02-15T06:00:30;46.27;;;2.37;;
2838;SDS011;1427;48.510;9.060;2024-02-15T06:03:01;46.73;;;2.80;;
2838;SDS011;1427;48.510;9.060;2024-02-15T06:05:30;46.77;;;2.70;;
2838;SDS011;1427;48.510;9.060;2024-02-15T06:08:00;46.97;;;3.03;;
2838;SDS011;1427;48.510;9.060;2024-02-15T06:10:28;45.80;;;2.30;;
2838;SDS011;1427;48.510;9.060;2024-02-15T06:12:58;45.30;;;2.03;;
2838;SDS011;1427;48.510;9.060;2024-02-15T06:15:26;52.40;;;5.63;;
2838;SDS011;1427;48.510;9.060;2024-02-15T06:17:54;47.53;;;2.93;;
2838;SDS011;1427;48.510;9.060;2024-02-15T06:20:23;45.07;;;1.80;;
2838;SDS011;1427;48.510;9.060;2024-02-15T06:22:55;45.27;;;2.20;;
2838;SDS011;1427;48.510;9.060;2024-02-15T06:25:24;45.80;;;1.90;;
2838;SDS011;1427;48.510;9.060;2024-02-15T06:27:52;46.27;;;2.20;;
2838;SDS011;1427;48.510;9.060;2024-02-15T06:30:26;44.90;;;1.83;;
2838;SDS011;1427;48.510;9.060;2024-02-15T06:33:17;44.50;;;1.70;;
2838;SDS011;1427;48.510;9.060;2024-02-15T06:36:06;47.10;;;3.40;;
2838;SDS011;1427;48.510;9.060;2024-02-15T06:38:51;46.10;;;3.60;;
2838;SDS011;1427;48.510;9.060;2024-02-15T06:41:39;48.27;;;3.97;;
2838;SDS011;1427;48.510;9.060;2024-02-15T06:44:07;47.50;;;4.80;;
2838;SDS011;1427;48.510;9.060;2024-02-15T06:46:36;63.23;;;5.40;;
2838;SDS011;1427;48.510;9.060;2024-02-15T06:49:05;51.60;;;6.70;;
2838;SDS011;1427;48.510;9.060;2024-02-15T06:51:36;48.10;;;3.77;;
2838;SDS011;1427;48.510;9.060;2024-02-15T06:54:04;49.20;;;4.97;;
2838;SDS011;1427;48.510;9.060;2024-02-15T06:56:35;48.80;;;5.67;;
2838;SDS011;1427;48.510;9.060;2024-02-15T06:59:05;47.80;;;5.17;;
2838;SDS011;1427;48.510;9.060;2024-02-15T07:01:33;46.93;;;4.03;;
2838;SDS011;1427;48.510;9.060;2024-02-15T07:04:01;46.93;;;4.97;;
2838;SDS011;1427;48.510;9.060;2024-02-15T07:06:33;46.80;;;4.33;;
2838;SDS011;1427;48.510;9.060;2024-02-15T07:09:04;47.53;;;4.40;;
2838;SDS011;1427;48.510;9.060;2024-02-15T07:11:33;47.07;;;3.60;;
2838;SDS011;1427;48.510;9.060;2024-02-15T07:14:01;46.30;;;4.73;;
2838;SDS011;1427;48.510;9.060;2024-02-15T07:16:32;48.40;;;6.40;;
2838;SDS011;1427;48.510;9.060;2024-02-15T07:19:00;47.17;;;4.60;;
2838;SDS011;1427;48.510;9.060;2024-02-15T07:21:30;46.50;;;4.30;;
2838;SDS011;1427;48.510;9.060;2024-02-15T07:23:58;49.97;;;5.27;;
2838;SDS011;1427;48.510;9.060;2024-02-15T07:26:26;46.00;;;3.60;;
2838;SDS011;1427;48.510;9.060;2024-02-15T07:28:54;49.00;;;4.33;;
2838;SDS011;1427;48.510;9.060;2024-02-15T07:31:27;46.67;;;3.80;;
2838;SDS011;1427;48.510;9.060;2024-02-15T07:33:57;45.90;;;3.10;;
2838;SDS011;1427;48.510;9.060;2024-02-15T07:36:26;47.07;;;3.97;;
2838;SDS011;1427;48.510;9.060;2024-02-15T07:38:54;47.97;;;4.63;;
2838;SDS011;1427;48.510;9.060;2024-02-15T07:41:28;47.20;;;3.73;;
2838;SDS011;1427;48.510;9.060;2024-02-15T07:43:57;46.77;;;3.60;;
2838;SDS011;1427;48.510;9.060;2024-02-15T07:46:27;48.00;;;4.40;;
2838;SDS011;1427;48.510;9.060;2024-02-15T07:48:55;47.60;;;4.03;;
2838;SDS011;1427;48.510;9.060;2024-02-15T07:51:25;47.80;;;4.97;;
2838;SDS011;1427;48.510;9.060;2024-02-15T07:53:54;49.37;;;5.33;;
2838;SDS011;1427;48.510;9.060;2024-02-15T07:56:22;47.10;;;4.20;;
2838;SDS011;1427;48.510;9.060;2024-02-15T07:58:50;49.20;;;5.30;;
2838;SDS011;1427;48.510;9.060;2024-02-15T08:01:20;47.13;;;4.53;;
2838;SDS011;1427;48.510;9.060;2024-02-15T08:03:51;48.50;;;4.87;;
2838;SDS011;1427;48.510;9.060;2024-02-15T08:06:21;51.13;;;6.10;;
2838;SDS011;1427;48.510;9.060;2024-02-15T08:08:53;49.57;;;5.03;;
2838;SDS011;1427;48.510;9.060;2024-02-15T08:11:21;51.17;;;4.87;;
2838;SDS011;1427;48.510;9.060;2024-02-15T08:13:50;47.20;;;4.33;;
2838;SDS011;1427;48.510;9.060;2024-02-15T08:16:21;46.87;;;3.70;;
2838;SDS011;1427;48.510;9.060;2024-02-15T08:18:50;50.60;;;4.40;;
2838;SDS011;1427;48.510;9.060;2024-02-15T08:21:24;50.97;;;5.83;;
2838;SDS011;1427;48.510;9.060;2024-02-15T08:23:57;47.57;;;3.63;;
2838;SDS011;1427;48.510;9.060;2024-02-15T08:26:25;48.20;;;4.37;;
2838;SDS011;1427;48.510;9.060;2024-02-15T08:28:56;47.50;;;4.17;;
2838;SDS011;1427;48.510;9.060;2024-02-15T08:31:24;49.60;;;4.90;;
2838;SDS011;1427;48.510;9.060;2024-02-15T08:33:52;53.97;;;6.17;;
2838;SDS011;1427;48.510;9.060;2024-02-15T08:36:20;49.90;;;5.10;;
2838;SDS011;1427;48.510;9.060;2024-02-15T08:38:48;48.60;;;5.20;;
2838;SDS011;1427;48.510;9.060;2024-02-15T08:41:18;48.47;;;4.60;;
2838;SDS011;1427;48.510;9.060;2024-02-15T08:43:47;51.10;;;5.77;;
2838;SDS011;1427;48.510;9.060;2024-02-15T08:46:15;49.20;;;5.60;;
2838;SDS011;1427;48.510;9.060;2024-02-15T08:48:43;48.57;;;5.20;;
2838;SDS011;1427;48.510;9.060;2024-02-15T08:51:13;47.80;;;4.97;;
2838;SDS011;1427;48.510;9.060;2024-02-15T08:53:42;54.90;;;5.33;;
2838;SDS011;1427;48.510;9.060;2024-02-15T08:56:11;50.53;;;5.93;;
2838;SDS011;1427;48.510;9.060;2024-02-15T08:58:40;49.20;;;4.60;;
2838;SDS011;1427;48.510;9.060;2024-02-15T09:01:09;48.13;;;4.40;;
2838;SDS011;1427;48.510;9.060;2024-02-15T09:03:39;49.47;;;4.80;;
2838;SDS011;1427;48.510;9.060;2024-02-15T09:06:08;48.87;;;4.07;;
2838;SDS011;1427;48.510;9.060;2024-02-15T09:08:38;48.57;;;4.70;;
2838;SDS011;1427;48.510;9.060;2024-02-15T09:11:06;49.53;;;4.57;;
2838;SDS011;1427;48.510;9.060;2024-02-15T09:13:38;49.07;;;4.70;;
2838;SDS011;1427;48.510;9.060;2024-02-15T09:16:08;49.10;;;4.37;;
2838;SDS011;1427;48.510;9.060;2024-02-15T09:18:38;49.40;;;5.40;;
2838;SDS011;1427;48.510;9.060;2024-02-15T09:21:13;49.40;;;5.57;;
2838;SDS011;1427;48.510;9.060;2024-02-15T09:23:42;53.63;;;6.07;;
2838;SDS011;1427;48.510;9.060;2024-02-15T09:26:10;50.07;;;5.83;;
2838;SDS011;1427;48.510;9.060;2024-02-15T09:28:40;62.03;;;9.93;;
2838;SDS011;1427;48.510;9.060;2024-02-15T09:31:09;48.57;;;4.50;;
2838;SDS011;1427;48.510;9.060;2024-02-15T09:33:40;48.40;;;5.03;;
2838;SDS011;1427;48.510;9.060;2024-02-15T09:36:08;50.47;;;5.00;;
2838;SDS011;1427;48.510;9.060;2024-02-15T09:38:38;49.80;;;4.17;;
2838;SDS011;1427;48.510;9.060;2024-02-15T09:41:06;50.27;;;4.43;;
2838;SDS011;1427;48.510;9.060;2024-02-15T09:43:35;50.40;;;5.30;;
2838;SDS011;1427;48.510;9.060;2024-02-15T09:46:04;49.50;;;5.10;;
2838;SDS011;1427;48.510;9.060;2024-02-15T09:48:33;53.63;;;6.23;;
2838;SDS011;1427;48.510;9.060;2024-02-15T09:51:03;49.40;;;5.37;;
2838;SDS011;1427;48.510;9.060;2024-02-15T09:53:31;49.10;;;4.93;;
2838;SDS011;1427;48.510;9.060;2024-02-15T09:56:01;50.00;;;5.40;;
2838;SDS011;1427;48.510;9.060;2024-02-15T09:58:33;51.57;;;5.30;;
2838;SDS011;1427;48.510;9.060;2024-02-15T10:01:02;52.10;;;5.90;;
2838;SDS011;1427;48.510;9.060;2024-02-15T10:03:37;50.50;;;5.07;;
2838;SDS011;1427;48.510;9.060;2024-02-15T10:06:07;54.70;;;6.07;;
2838;SDS011;1427;48.510;9.060;2024-02-15T10:08:36;52.47;;;6.73;;
2838;SDS011;1427;48.510;9.060;2024-02-15T10:11:05;48.27;;;4.57;;
2838;SDS011;1427;48.510;9.060;2024-02-15T10:13:35;49.37;;;4.70;;
2838;SDS011;1427;48.510;9.060;2024-02-15T10:16:15;50.50;;;4.80;;
2838;SDS011;1427;48.510;9.060;2024-02-15T10:18:44;48.50;;;4.73;;
2838;SDS011;1427;48.510;9.060;2024-02-15T10:21:26;49.30;;;5.13;;
2838;SDS011;1427;48.510;9.060;2024-02-15T10:24:04;51.33;;;5.03;;
2838;SDS011;1427;48.510;9.060;2024-02-15T10:26:33;50.30;;;5.57;;
2838;SDS011;1427;48.510;9.060;2024-02-15T10:29:05;51.80;;;5.80;;
2838;SDS011;1427;48.510;9.060;2024-02-15T10:31:37;49.23;;;4.93;;
2838;SDS011;1427;48.510;9.060;2024-02-15T10:34:07;49.37;;;5.43;;
2838;SDS011;1427;48.510;9.060;2024-02-15T10:36:36;50.40;;;5.97;;
2838;SDS011;1427;48.510;9.060;2024-02-15T10:39:11;49.67;;;5.47;;
2838;SDS011;1427;48.510;9.060;2024-02-15T10:41:44;48.70;;;4.83;;
2838;SDS011;1427;48.510;9.060;2024-02-15T10:44:15;48.40;;;4.90;;
2838;SDS011;1427;48.510;9.060;2024-02-15T10:46:46;49.50;;;4.63;;
2838;SDS011;1427;48.510;9.060;2024-02-15T10:49:21;52.13;;;6.27;;
2838;SDS011;1427;48.510;9.060;2024-02-15T10:51:51;49.80;;;5.03;;
2838;SDS011;1427;48.510;9.060;2024-02-15T10:54:52;49.27;;;5.27;;
2838;SDS011;1427;48.510;9.060;2024-02-15T10:57:30;51.63;;;5.70;;
2838;SDS011;1427;48.510;9.060;2024-02-15T11:00:00;49.27;;;4.83;;
2838;SDS011;1427;48.510;9.060;2024-02-15T11:02:38;49.70;;;4.60;;
2838;SDS011;1427;48.510;9.060;2024-02-15T11:05:14;50.40;;;5.50;;
2838;SDS011;1427;48.510;9.060;2024-02-15T11:07:47;50.17;;;4.87;;
2838;SDS011;1427;48.510;9.060;2024-02-15T11:10:15;49.30;;;5.83;;
2838;SDS011;1427;48.510;9.060;2024-02-15T11:12:44;50.40;;;6.10;;
2838;SDS011;1427;48.510;9.060;2024-02-15T11:18:09;48.23;;;4.70;;
2838;SDS011;1427;48.510;9.060;2024-02-15T11:20:50;49.73;;;5.37;;
2838;SDS011;1427;48.510;9.060;2024-02-15T11:23:23;49.07;;;5.50;;
2838;SDS011;1427;48.510;9.060;2024-02-15T11:26:02;49.47;;;4.57;;
2838;SDS011;1427;48.510;9.060;2024-02-15T11:28:38;50.60;;;5.03;;
2838;SDS011;1427;48.510;9.060;2024-02-15T11:31:08;54.20;;;6.50;;
2838;SDS011;1427;48.510;9.060;2024-02-15T11:33:42;49.93;;;4.97;;
2838;SDS011;1427;48.510;9.060;2024-02-15T11:36:11;49.17;;;4.43;;
2838;SDS011;1427;48.510;9.060;2024-02-15T11:38:40;49.23;;;4.43;;
2838;SDS011;1427;48.510;9.060;2024-02-15T11:41:10;47.77;;;4.03;;
2838;SDS011;1427;48.510;9.060;2024-02-15T11:43:45;49.30;;;3.97;;
2838;SDS011;1427;48.510;9.060;2024-02-15T11:46:17;49.63;;;5.37;;
2838;SDS011;1427;48.510;9.060;2024-02-15T11:48:48;60.93;;;7.30;;
2838;SDS011;1427;48.510;9.060;2024-02-15T11:51:30;51.43;;;4.07;;
2838;SDS011;1427;48.510;9.060;2024-02-15T11:54:03;50.20;;;4.27;;
2838;SDS011;1427;48.510;9.060;2024-02-15T11:59:21;49.30;;;4.97;;
2838;SDS011;1427;48.510;9.060;2024-02-15T12:01:58;49.17;;;4.63;;
2838;SDS011;1427;48.510;9.060;2024-02-15T12:04:51;54.00;;;6.20;;
2838;SDS011;1427;48.510;9.060;2024-02-15T12:07:37;49.30;;;4.90;;
2838;SDS011;1427;48.510;9.060;2024-02-15T12:10:22;47.50;;;3.87;;
2838;SDS011;1427;48.510;9.060;2024-02-15T12:13:08;48.10;;;4.00;;
2838;SDS011;1427;48.510;9.060;2024-02-15T12:15:58;47.80;;;4.13;;
2838;SDS011;1427;48.510;9.060;2024-02-15T12:18:44;49.60;;;5.20;;
2838;SDS011;1427;48.510;9.060;2024-02-15T12:21:20;50.13;;;4.77;;
2838;SDS011;1427;48.510;9.060;2024-02-15T12:23:51;48.40;;;4.20;;
2838;SDS011;1427;48.510;9.060;2024-02-15T12:26:20;48.10;;;4.17;;
2838;SDS011;1427;48.510;9.060;2024-02-15T12:28:50;47.17;;;3.47;;
2838;SDS011;1427;48.510;9.060;2024-02-15T12:31:22;49.97;;;4.27;;
2838;SDS011;1427;48.510;9.060;2024-02-15T12:33:59;47.87;;;3.87;;
2838;SDS011;1427;48.510;9.060;2024-02-15T12:36:30;47.87;;;3.70;;
2838;SDS011;1427;48.510;9.060;2024-02-15T12:38:59;47.40;;;4.03;;
2838;SDS011;1427;48.510;9.060;2024-02-15T12:41:28;48.43;;;4.53;;
2838;SDS011;1427;48.510;9.060;2024-02-15T12:43:57;48.90;;;4.07;;
2838;SDS011;1427;48.510;9.060;2024-02-15T12:46:25;47.73;;;4.60;;
2838;SDS011;1427;48.510;9.060;2024-02-15T12:49:06;48.17;;;4.40;;
2838;SDS011;1427;48.510;9.060;2024-02-15T12:51:42;47.87;;;3.90;;
2838;SDS011;1427;48.510;9.060;2024-02-15T12:54:19;48.60;;;4.63;;
2838;SDS011;1427;48.510;9.060;2024-02-15T12:56:48;47.53;;;3.77;;
2838;SDS011;1427;48.510;9.060;2024-02-15T12:59:18;49.80;;;4.13;;
2838;SDS011;1427;48.510;9.060;2024-02-15T13:01:48;49.13;;;4.40;;
2838;SDS011;1427;48.510;9.060;2024-02-15T13:04:21;47.57;;;3.80;;
2838;SDS011;1427;48.510;9.060;2024-02-15T13:06:52;47.03;;;3.50;;
2838;SDS011;1427;48.510;9.060;2024-02-15T13:09:21;48.03;;;4.40;;
2838;SDS011;1427;48.510;9.060;2024-02-15T13:11:49;46.73;;;3.20;;
2838;SDS011;1427;48.510;9.060;2024-02-15T13:14:20;48.37;;;4.20;;
2838;SDS011;1427;48.510;9.060;2024-02-15T13:16:48;47.57;;;3.90;;
2838;SDS011;1427;48.510;9.060;2024-02-15T13:19:17;48.37;;;3.80;;
2838;SDS011;1427;48.510;9.060;2024-02-15T13:21:47;48.17;;;4.53;;
2838;SDS011;1427;48.510;9.060;2024-02-15T13:24:20;47.83;;;4.17;;
2838;SDS011;1427;48.510;9.060;2024-02-15T13:26:52;50.30;;;3.77;;
2838;SDS011;1427;48.510;9.060;2024-02-15T13:29:24;47.27;;;3.70;;
2838;SDS011;1427;48.510;9.060;2024-02-15T13:31:52;53.30;;;3.93;;
2838;SDS011;1427;48.510;9.060;2024-02-15T13:34:21;48.10;;;4.60;;
2838;SDS011;1427;48.510;9.060;2024-02-15T13:36:49;48.73;;;4.90;;
2838;SDS011;1427;48.510;9.060;2024-02-15T13:39:17;47.40;;;3.73;;
2838;SDS011;1427;48.510;9.060;2024-02-15T13:41:49;47.37;;;3.50;;
2838;SDS011;1427;48.510;9.060;2024-02-15T13:44:18;47.57;;;3.93;;
2838;SDS011;1427;48.510;9.060;2024-02-15T13:46:47;47.87;;;3.87;;
2838;SDS011;1427;48.510;9.060;2024-02-15T13:49:16;49.07;;;4.10;;
2838;SDS011;1427;48.510;9.060;2024-02-15T13:51:57;47.90;;;3.70;;
2838;SDS011;1427;48.510;9.060;2024-02-15T13:54:29;48.30;;;4.00;;
2838;SDS011;1427;48.510;9.060;2024-02-15T13:56:59;48.33;;;4.70;;
2838;SDS011;1427;48.510;9.060;2024-02-15T13:59:28;48.53;;;4.33;;
2838;SDS011;1427;48.510;9.060;2024-02-15T14:01:56;50.80;;;5.07;;
2838;SDS011;1427;48.510;9.060;2024-02-15T14:04:24;47.47;;;4.20;;
2838;SDS011;1427;48.510;9.060;2024-02-15T14:06:53;49.57;;;4.03;;
2838;SDS011;1427;48.510;9.060;2024-02-15T14:09:22;48.90;;;4.17;;
2838;SDS011;1427;48.510;9.060;2024-02-15T14:11:53;68.83;;;11.20;;
2838;SDS011;1427;48.510;9.060;2024-02-15T14:14:22;49.87;;;4.97;;
2838;SDS011;1427;48.510;9.060;2024-02-15T14:16:51;50.50;;;4.10;;
2838;SDS011;1427;48.510;9.060;2024-02-15T14:19:20;49.00;;;4.17;;
2838;SDS011;1427;48.510;9.060;2024-02-15T14:21:52;48.47;;;4.00;;
2838;SDS011;1427;48.510;9.060;2024-02-15T14:24:21;49.97;;;4.13;;
2838;SDS011;1427;48.510;9.060;2024-02-15T14:26:49;48.50;;;4.60;;
2838;SDS011;1427;48.510;9.060;2024-02-15T14:29:17;47.80;;;4.20;;
2838;SDS011;1427;48.510;9.060;2024-02-15T14:31:53;49.40;;;4.80;;
2838;SDS011;1427;48.510;9.060;2024-02-15T14:34:39;49.27;;;3.80;;
2838;SDS011;1427;48.510;9.060;2024-02-15T14:37:07;46.70;;;3.17;;
2838;SDS011;1427;48.510;9.060;2024-02-15T14:39:36;48.90;;;4.30;;
2838;SDS011;1427;48.510;9.060;2024-02-15T14:42:04;48.00;;;4.03;;
2838;SDS011;1427;48.510;9.060;2024-02-15T14:44:36;48.50;;;4.63;;
2838;SDS011;1427;48.510;9.060;2024-02-15T14:47:07;52.43;;;4.17;;
2838;SDS011;1427;48.510;9.060;2024-02-15T14:49:35;48.80;;;3.30;;
2838;SDS011;1427;48.510;9.060;2024-02-15T14:52:03;47.73;;;3.37;;
2838;SDS011;1427;48.510;9.060;2024-02-15T14:54:31;48.47;;;4.40;;
2838;SDS011;1427;48.510;9.060;2024-02-15T14:57:02;47.77;;;3.87;;
2838;SDS011;1427;48.510;9.060;2024-02-15T14:59:31;48.40;;;5.23;;
2838;SDS011;1427;48.510;9.060;2024-02-15T15:02:01;48.53;;;3.93;;
2838;SDS011;1427;48.510;9.060;2024-02-15T15:04:39;50.10;;;4.17;;
2838;SDS011;1427;48.510;9.060;2024-02-15T15:07:34;48.10;;;4.07;;
2838;SDS011;1427;48.510;9.060;2024-02-15T15:10:20;50.90;;;4.60;;
2838;SDS011;1427;48.510;9.060;2024-02-15T15:13:05;49.20;;;4.77;;
2838;SDS011;1427;48.510;9.060;2024-02-15T15:15:34;48.97;;;5.17;;
2838;SDS011;1427;48.510;9.060;2024-02-15T15:18:03;48.47;;;4.17;;
2838;SDS011;1427;48.510;9.060;2024-02-15T15:20:33;49.57;;;4.20;;
2838;SDS011;1427;48.510;9.060;2024-02-15T15:23:03;51.73;;;3.90;;
2838;SDS011;1427;48.510;9.060;2024-02-15T15:25:33;52.10;;;5.23;;
2838;SDS011;1427;48.510;9.060;2024-02-15T15:28:03;47.90;;;4.00;;